Time;durP1;ratioP1;P1;durP2;ratioP2;P2;SDS_P1;SDS_P2;PMS_P1;PMS_P2;Temp;Humidity;BMP_temperature;BMP_pressure;BME280_temperature;BME280_humidity;BME280_pressure;Samples;Min_cycle;Max_cycle;Signal;HPM_P1;HPM_P2
2022/06/18 00:00:48;;;;;;;8.90;3.78;;;;;;;;;;5012211;28;20049;-70
2022/06/18 00:03:14;;;;;;;5.63;3.28;;;;;;;;;;5010528;28;20049;-70
2022/06/18 00:05:42;;;;;;;5.93;3.70;;;;;;;;;;5010780;28;20137;-71
2022/06/18 00:08:11;;;;;;;7.63;3.78;;;;;;;;;;5011130;28;20445;-70
2022/06/18 00:10:37;;;;;;;7.93;3.90;;;;;;;;;;4993662;28;20038;-70
2022/06/18 00:15:58;;;;;;;8.40;4.10;;;;;;;;;;5008253;28;20046;-70
2022/06/18 00:18:24;;;;;;;5.57;3.88;;;;;;;;;;5005361;28;20065;-70
2022/06/18 00:20:50;;;;;;;6.60;3.90;;;;;;;;;;5022354;28;20053;-70
2022/06/18 00:23:17;;;;;;;5.75;3.88;;;;;;;;;;5023919;28;20041;-71
2022/06/18 00:25:45;;;;;;;5.28;3.80;;;;;;;;;;5023392;28;20042;-70
2022/06/18 00:28:13;;;;;;;13.67;4.50;;;;;;;;;;5027517;28;20042;-71
2022/06/18 00:30:39;;;;;;;11.23;4.30;;;;;;;;;;5011416;28;20052;-70
2022/06/18 00:33:05;;;;;;;4.55;3.67;;;;;;;;;;5023988;28;20131;-71
2022/06/18 00:35:32;;;;;;;7.57;4.03;;;;;;;;;;5026657;28;20111;-70
2022/06/18 00:37:59;;;;;;;13.18;5.90;;;;;;;;;;5026654;28;20041;-70
2022/06/18 00:40:28;;;;;;;6.70;4.00;;;;;;;;;;5025475;28;20068;-70
2022/06/18 00:42:56;;;;;;;5.95;4.30;;;;;;;;;;5028034;28;20041;-70
2022/06/18 00:45:25;;;;;;;5.82;3.78;;;;;;;;;;5050845;28;20128;-70
2022/06/18 00:47:51;;;;;;;;;;;;;;;;;;5051036;28;20095;-70
2022/06/18 00:50:24;;;;;;;5.25;4.10;;;;;;;;;;5049312;28;19928;-70
2022/06/18 00:53:02;;;;;;;8.30;4.82;;;;;;;;;;5048861;28;20111;-70
2022/06/18 00:55:38;;;;;;;8.13;4.57;;;;;;;;;;5048640;28;20049;-70
2022/06/18 00:58:17;;;;;;;6.15;4.40;;;;;;;;;;5050905;28;20051;-70
2022/06/18 01:00:45;;;;;;;6.97;4.78;;;;;;;;;;5026552;28;20045;-70
2022/06/18 01:03:26;;;;;;;8.25;5.10;;;;;;;;;;5029883;28;20045;-70
2022/06/18 01:05:53;;;;;;;6.20;4.85;;;;;;;;;;5030044;28;20418;-70
2022/06/18 01:08:21;;;;;;;8.05;4.90;;;;;;;;;;5029753;28;20482;-70
2022/06/18 01:10:58;;;;;;;6.90;4.65;;;;;;;;;;5028926;28;20051;-70
2022/06/18 01:13:27;;;;;;;6.63;4.97;;;;;;;;;;5031239;28;20076;-70
2022/06/18 01:15:55;;;;;;;9.20;5.30;;;;;;;;;;5031256;28;20041;-70
2022/06/18 01:18:21;;;;;;;9.57;5.03;;;;;;;;;;5029960;28;20111;-70
2022/06/18 01:20:57;;;;;;;12.65;5.50;;;;;;;;;;5029241;28;20300;-70
2022/06/18 01:23:26;;;;;;;6.68;5.35;;;;;;;;;;5029051;28;20128;-70
2022/06/18 01:25:53;;;;;;;7.93;5.20;;;;;;;;;;5029395;28;20087;-71
2022/06/18 01:28:20;;;;;;;8.35;5.40;;;;;;;;;;5029238;28;20049;-70
2022/06/18 01:30:47;;;;;;;7.50;5.00;;;;;;;;;;5012694;28;20132;-70
2022/06/18 01:33:13;;;;;;;9.05;5.90;;;;;;;;;;5029288;28;20080;-70
2022/06/18 01:35:42;;;;;;;14.02;6.38;;;;;;;;;;5029269;28;20082;-71
2022/06/18 01:38:08;;;;;;;10.63;5.97;;;;;;;;;;5028907;28;20060;-70
2022/06/18 01:40:43;;;;;;;6.80;5.60;;;;;;;;;;5030274;28;20099;-70
2022/06/18 01:43:11;;;;;;;7.05;5.63;;;;;;;;;;5030430;28;20501;-70
2022/06/18 01:45:39;;;;;;;12.52;5.90;;;;;;;;;;5023091;28;20045;-70
2022/06/18 01:48:16;;;;;;;12.10;6.25;;;;;;;;;;5029002;28;20056;-70
2022/06/18 01:50:52;;;;;;;9.30;5.70;;;;;;;;;;5029949;28;20555;-70
2022/06/18 01:53:30;;;;;;;8.13;5.80;;;;;;;;;;5029859;28;20055;-70
2022/06/18 01:55:59;;;;;;;10.80;6.32;;;;;;;;;;5029191;28;20050;-70
2022/06/18 01:58:28;;;;;;;11.50;6.60;;;;;;;;;;5030143;28;20636;-70
2022/06/18 02:00:57;;;;;;;8.73;6.40;;;;;;;;;;5030124;28;20072;-70
2022/06/18 02:03:23;;;;;;;9.23;6.00;;;;;;;;;;5030553;28;20041;-70
2022/06/18 02:05:49;;;;;;;9.07;6.65;;;;;;;;;;5028465;28;20041;-70
2022/06/18 02:08:17;;;;;;;8.75;6.40;;;;;;;;;;5028509;28;20499;-70
2022/06/18 02:11:03;;;;;;;8.77;6.28;;;;;;;;;;5028290;28;20049;-69
2022/06/18 02:13:34;;;;;;;13.00;6.78;;;;;;;;;;5029735;28;20088;-70
2022/06/18 02:16:00;;;;;;;10.35;7.05;;;;;;;;;;5028697;28;20045;-69
2022/06/18 02:18:28;;;;;;;9.70;6.85;;;;;;;;;;5029257;28;20049;-70
2022/06/18 02:20:56;;;;;;;9.20;6.93;;;;;;;;;;5028633;28;20068;-70
2022/06/18 02:23:23;;;;;;;15.18;7.13;;;;;;;;;;5028877;28;20425;-70
2022/06/18 02:25:49;;;;;;;13.20;7.70;;;;;;;;;;5029125;28;20045;-70
2022/06/18 02:28:15;;;;;;;13.02;7.57;;;;;;;;;;5028727;28;20505;-70
2022/06/18 02:30:41;;;;;;;9.38;6.72;;;;;;;;;;5029457;28;20052;-70
2022/06/18 02:33:14;;;;;;;9.35;7.05;;;;;;;;;;5021829;28;20094;-70
2022/06/18 02:35:40;;;;;;;12.40;7.30;;;;;;;;;;5029038;28;20455;-70
2022/06/18 02:38:18;;;;;;;10.25;7.25;;;;;;;;;;5028389;28;20064;-70
2022/06/18 02:40:44;;;;;;;8.48;7.35;;;;;;;;;;5029686;28;20087;-70
2022/06/18 02:43:10;;;;;;;9.27;7.18;;;;;;;;;;5028758;28;20394;-70
2022/06/18 02:45:37;;;;;;;9.70;7.43;;;;;;;;;;5029610;28;20042;-70
2022/06/18 02:48:03;;;;;;;13.27;7.43;;;;;;;;;;5029643;28;20049;-69
2022/06/18 02:50:34;;;;;;;11.88;7.25;;;;;;;;;;5029063;28;20041;-69
2022/06/18 02:53:02;;;;;;;10.35;6.78;;;;;;;;;;5029406;28;20048;-70
2022/06/18 02:55:28;;;;;;;10.45;6.88;;;;;;;;;;5028643;28;20033;-70
2022/06/18 02:58:07;;;;;;;9.15;7.80;;;;;;;;;;5032161;28;20478;-69
2022/06/18 03:00:37;;;;;;;19.67;9.32;;;;;;;;;;5033384;28;20049;-70
2022/06/18 03:03:06;;;;;;;13.85;7.65;;;;;;;;;;5033605;28;20041;-69
2022/06/18 03:05:32;;;;;;;12.15;7.85;;;;;;;;;;5032749;28;20053;-69
2022/06/18 03:07:58;;;;;;;9.93;8.15;;;;;;;;;;5032403;28;20071;-70
2022/06/18 03:13:09;;;;;;;15.20;8.98;;;;;;;;;;5033242;28;20049;-70
2022/06/18 03:15:35;;;;;;;12.93;8.73;;;;;;;;;;5031954;28;20056;-70
2022/06/18 03:18:01;;;;;;;13.48;8.35;;;;;;;;;;5033492;28;20049;-70
2022/06/18 03:20:46;;;;;;;13.75;8.77;;;;;;;;;;5032017;28;20049;-70
2022/06/18 03:23:14;;;;;;;11.57;8.55;;;;;;;;;;5034595;28;20127;-70
2022/06/18 03:25:40;;;;;;;12.25;8.80;;;;;;;;;;5051879;28;20051;-70
2022/06/18 03:28:06;;;;;;;11.23;9.15;;;;;;;;;;5050975;28;20048;-70
2022/06/18 03:30:32;;;;;;;14.10;9.90;;;;;;;;;;5050465;28;20147;-70
2022/06/18 03:32:58;;;;;;;11.23;9.20;;;;;;;;;;5050657;28;20049;-70
2022/06/18 03:35:24;;;;;;;28.05;10.50;;;;;;;;;;5024573;28;20049;-70
2022/06/18 03:37:51;;;;;;;14.85;10.20;;;;;;;;;;5051056;28;20072;-70
2022/06/18 03:40:17;;;;;;;14.25;9.15;;;;;;;;;;5033922;28;20060;-70
2022/06/18 03:42:43;;;;;;;12.90;10.38;;;;;;;;;;5033493;28;20049;-70
2022/06/18 03:45:09;;;;;;;12.30;9.75;;;;;;;;;;5051823;28;20324;-70
2022/06/18 03:47:35;;;;;;;12.77;9.77;;;;;;;;;;5050394;28;20071;-69
2022/06/18 03:50:01;;;;;;;13.43;10.00;;;;;;;;;;5049920;28;20128;-70
2022/06/18 03:52:27;;;;;;;13.23;10.13;;;;;;;;;;5051483;28;20117;-69
2022/06/18 03:54:53;;;;;;;13.73;9.95;;;;;;;;;;5033649;28;20087;-69
2022/06/18 03:57:20;;;;;;;12.60;10.20;;;;;;;;;;5014726;28;20077;-69
2022/06/18 03:59:46;;;;;;;13.13;10.20;;;;;;;;;;5031007;28;20556;-69
2022/06/18 04:02:13;;;;;;;13.57;10.63;;;;;;;;;;5031165;28;20055;-69
2022/06/18 04:04:39;;;;;;;12.13;10.48;;;;;;;;;;5030610;28;20525;-69
2022/06/18 04:07:05;;;;;;;13.38;10.25;;;;;;;;;;5032009;28;20463;-70
2022/06/18 04:09:32;;;;;;;16.30;11.30;;;;;;;;;;5030717;28;20089;-69
2022/06/18 04:11:58;;;;;;;16.80;11.52;;;;;;;;;;5030841;28;20540;-69
2022/06/18 04:14:25;;;;;;;14.30;11.60;;;;;;;;;;5030883;28;20462;-69
2022/06/18 04:16:51;;;;;;;12.52;11.10;;;;;;;;;;5030699;28;20045;-69
2022/06/18 04:19:17;;;;;;;14.27;11.35;;;;;;;;;;5030254;28;20065;-69
2022/06/18 04:21:43;;;;;;;12.73;10.20;;;;;;;;;;5030604;28;20085;-69
2022/06/18 04:24:09;;;;;;;16.00;11.07;;;;;;;;;;5030675;28;20049;-70
2022/06/18 04:29:13;;;;;;;14.80;11.35;;;;;;;;;;5034963;22;20112;-75
2022/06/18 04:31:39;;;;;;;15.25;12.18;;;;;;;;;;5014847;28;20050;-76
2022/06/18 04:34:05;;;;;;;14.35;11.82;;;;;;;;;;4998409;28;20046;-77
2022/06/18 04:36:35;;;;;;;15.60;12.70;;;;;;;;;;5015294;28;20069;-75
2022/06/18 04:39:01;;;;;;;14.00;11.57;;;;;;;;;;4998909;28;20054;-74
2022/06/18 04:41:28;;;;;;;14.55;11.90;;;;;;;;;;5015571;28;20045;-75
2022/06/18 04:43:55;;;;;;;17.10;13.30;;;;;;;;;;4997662;28;20054;-74
2022/06/18 04:46:21;;;;;;;15.05;12.10;;;;;;;;;;5015552;28;20132;-75
2022/06/18 04:48:47;;;;;;;15.35;12.88;;;;;;;;;;5006380;28;20049;-75
2022/06/18 04:51:13;;;;;;;15.05;13.00;;;;;;;;;;5034062;28;20037;-75
2022/06/18 04:53:39;;;;;;;16.02;13.60;;;;;;;;;;5034407;28;20049;-74
2022/06/18 04:56:06;;;;;;;22.38;14.35;;;;;;;;;;5034655;28;20053;-75
2022/06/18 04:58:32;;;;;;;16.92;14.23;;;;;;;;;;5016544;28;20081;-75
2022/06/18 05:00:59;;;;;;;20.90;14.15;;;;;;;;;;5033959;28;20081;-75
2022/06/18 05:03:25;;;;;;;16.63;12.82;;;;;;;;;;5016487;28;20053;-75
2022/06/18 05:05:52;;;;;;;17.08;14.18;;;;;;;;;;5033974;28;20492;-75
2022/06/18 05:08:18;;;;;;;18.67;13.60;;;;;;;;;;5034054;28;20092;-74
2022/06/18 05:10:47;;;;;;;20.42;14.15;;;;;;;;;;5033736;28;20111;-75
2022/06/18 05:13:13;;;;;;;23.08;14.90;;;;;;;;;;5034128;28;20095;-76
2022/06/18 05:15:41;;;;;;;26.05;14.52;;;;;;;;;;5033976;28;20507;-75
2022/06/18 05:18:07;;;;;;;19.10;13.82;;;;;;;;;;5033903;28;20041;-75
2022/06/18 05:20:33;;;;;;;19.70;15.45;;;;;;;;;;5015176;28;20041;-75
2022/06/18 05:22:59;;;;;;;21.73;15.73;;;;;;;;;;5033711;28;20049;-77
2022/06/18 05:25:26;;;;;;;22.60;15.13;;;;;;;;;;5033951;28;20044;-75
2022/06/18 05:27:52;;;;;;;22.52;14.35;;;;;;;;;;5033646;28;20054;-75
2022/06/18 05:30:21;;;;;;;18.60;14.40;;;;;;;;;;4999373;28;20049;-76
2022/06/18 05:32:48;;;;;;;22.88;15.57;;;;;;;;;;5016080;28;20044;-76
2022/06/18 05:35:15;;;;;;;24.50;16.25;;;;;;;;;;5033227;28;20038;-76
2022/06/18 05:37:41;;;;;;;23.00;16.58;;;;;;;;;;5015521;28;20050;-74
2022/06/18 05:40:07;;;;;;;20.63;16.05;;;;;;;;;;5033439;28;20050;-74
2022/06/18 05:42:34;;;;;;;21.58;15.25;;;;;;;;;;5033391;28;20053;-75
2022/06/18 05:45:00;;;;;;;23.73;15.77;;;;;;;;;;5017258;28;20041;-74
2022/06/18 05:47:28;;;;;;;26.02;15.75;;;;;;;;;;5014574;28;20496;-75
2022/06/18 05:49:56;;;;;;;;;;;;;;;;;;5014720;28;20100;-75
2022/06/18 05:52:22;;;;;;;24.88;15.52;;;;;;;;;;5014454;28;20455;-74
2022/06/18 05:54:51;;;;;;;24.92;16.40;;;;;;;;;;5012893;28;20046;-74
2022/06/18 05:57:17;;;;;;;23.73;15.25;;;;;;;;;;5022867;28;20053;-75
2022/06/18 05:59:43;;;;;;;24.08;14.57;;;;;;;;;;4999094;28;20045;-75
2022/06/18 06:02:13;;;;;;;22.83;15.90;;;;;;;;;;5033050;28;20048;-74
2022/06/18 06:04:39;;;;;;;23.85;15.32;;;;;;;;;;5032998;28;20049;-75
2022/06/18 06:07:06;;;;;;;27.75;15.50;;;;;;;;;;5033123;28;20073;-75
2022/06/18 06:12:20;;;;;;;27.20;15.40;;;;;;;;;;5012849;28;20064;-75
2022/06/18 06:14:46;;;;;;;22.00;14.60;;;;;;;;;;5013778;28;20113;-74
2022/06/18 06:17:13;;;;;;;22.05;14.45;;;;;;;;;;5013875;28;20497;-74
2022/06/18 06:19:39;;;;;;;24.87;14.87;;;;;;;;;;4996290;28;20045;-72
2022/06/18 06:22:06;;;;;;;24.58;15.00;;;;;;;;;;5013961;28;20045;-73
2022/06/18 06:24:32;;;;;;;21.25;13.48;;;;;;;;;;4995956;28;20049;-74
2022/06/18 06:26:58;;;;;;;22.38;14.00;;;;;;;;;;5013637;28;20050;-73
2022/06/18 06:29:24;;;;;;;26.50;17.00;;;;;;;;;;5014059;28;20402;-73
2022/06/18 06:31:50;;;;;;;25.42;14.57;;;;;;;;;;4996300;28;20485;-73
2022/06/18 06:34:16;;;;;;;23.60;15.25;;;;;;;;;;5013729;28;20129;-73
2022/06/18 06:36:42;;;;;;;22.83;14.43;;;;;;;;;;5013825;28;20138;-74
2022/06/18 06:39:08;;;;;;;21.95;14.38;;;;;;;;;;5027875;28;20045;-73
2022/06/18 06:41:34;;;;;;;23.33;15.43;;;;;;;;;;5032728;28;20049;-75
2022/06/18 06:44:00;;;;;;;36.58;16.70;;;;;;;;;;5014820;28;20045;-73
2022/06/18 06:46:26;;;;;;;21.20;14.50;;;;;;;;;;5032510;28;20086;-74
2022/06/18 06:48:52;;;;;;;30.50;14.50;;;;;;;;;;5032455;28;20140;-75
2022/06/18 06:51:25;;;;;;;27.13;15.18;;;;;;;;;;5032532;28;20543;-75
2022/06/18 06:53:51;;;;;;;19.83;15.02;;;;;;;;;;4998256;28;20477;-74
2022/06/18 06:59:03;;;;;;;23.65;14.35;;;;;;;;;;5032459;28;20049;-73
2022/06/18 07:01:29;;;;;;;24.85;13.88;;;;;;;;;;5014353;28;20046;-73
2022/06/18 07:03:56;;;;;;;23.13;13.65;;;;;;;;;;5032526;28;20417;-72
2022/06/18 07:06:22;;;;;;;21.10;14.15;;;;;;;;;;4986018;28;20050;-72
2022/06/18 07:08:48;;;;;;;25.58;15.45;;;;;;;;;;5014879;28;20049;-73
2022/06/18 07:11:15;;;;;;;22.98;14.25;;;;;;;;;;5013212;28;20054;-72
2022/06/18 07:13:41;;;;;;;26.92;14.15;;;;;;;;;;4995655;28;20053;-73
2022/06/18 07:16:10;;;;;;;28.10;14.65;;;;;;;;;;5013368;28;20046;-72
2022/06/18 07:18:36;;;;;;;22.92;13.95;;;;;;;;;;5016687;28;20460;-74
2022/06/18 07:21:04;;;;;;;19.75;12.45;;;;;;;;;;5019119;28;20037;-73
2022/06/18 07:23:30;;;;;;;24.65;13.05;;;;;;;;;;5015861;28;20057;-74
2022/06/18 07:25:56;;;;;;;23.45;12.05;;;;;;;;;;5013395;28;20453;-74
2022/06/18 07:28:23;;;;;;;19.27;12.00;;;;;;;;;;5018193;28;20421;-75
2022/06/18 07:30:49;;;;;;;20.55;11.00;;;;;;;;;;5013533;28;20413;-73
2022/06/18 07:33:17;;;;;;;17.85;9.68;;;;;;;;;;5013545;28;20471;-75
2022/06/18 07:35:43;;;;;;;19.45;10.50;;;;;;;;;;5013515;28;20049;-75
2022/06/18 07:38:09;;;;;;;19.58;10.93;;;;;;;;;;5015098;28;20056;-74
2022/06/18 07:40:37;;;;;;;18.73;10.48;;;;;;;;;;5016852;28;20050;-74
2022/06/18 07:43:04;;;;;;;19.88;10.60;;;;;;;;;;5015892;28;20046;-73
2022/06/18 07:45:30;;;;;;;18.83;9.82;;;;;;;;;;5017722;28;20045;-74
2022/06/18 07:47:56;;;;;;;27.80;13.70;;;;;;;;;;5015539;28;20503;-73
2022/06/18 07:50:23;;;;;;;18.33;11.02;;;;;;;;;;5016888;28;20053;-75
2022/06/18 07:52:49;;;;;;;20.83;10.98;;;;;;;;;;5031590;28;20054;-72
2022/06/18 07:55:17;;;;;;;20.20;10.85;;;;;;;;;;5031750;28;20099;-73
2022/06/18 07:57:43;;;;;;;22.58;11.82;;;;;;;;;;5032202;28;20042;-73
2022/06/18 08:00:11;;;;;;;16.73;10.70;;;;;;;;;;5015102;28;20042;-74
2022/06/18 08:02:39;;;;;;;35.10;14.73;;;;;;;;;;5015458;28;20050;-74
2022/06/18 08:05:05;;;;;;;16.85;10.70;;;;;;;;;;5031748;28;20053;-74
2022/06/18 08:07:31;;;;;;;26.85;11.57;;;;;;;;;;5014734;28;20041;-74
2022/06/18 08:09:57;;;;;;;17.45;9.80;;;;;;;;;;5023433;28;20551;-74
2022/06/18 08:12:23;;;;;;;14.88;9.30;;;;;;;;;;5017732;28;20073;-75
2022/06/18 08:14:49;;;;;;;13.88;8.27;;;;;;;;;;5035690;28;20048;-74
2022/06/18 08:17:15;;;;;;;15.63;8.68;;;;;;;;;;5034073;28;20037;-75
2022/06/18 08:19:41;;;;;;;17.70;10.15;;;;;;;;;;5035065;28;20045;-75
2022/06/18 08:22:07;;;;;;;15.13;9.38;;;;;;;;;;5034621;28;20385;-74
2022/06/18 08:24:34;;;;;;;16.45;10.50;;;;;;;;;;5034840;28;20055;-73
2022/06/18 08:27:00;;;;;;;15.80;9.35;;;;;;;;;;5033861;28;20484;-73
2022/06/18 08:29:27;;;;;;;14.18;9.10;;;;;;;;;;5016056;28;20057;-75
2022/06/18 08:31:53;;;;;;;15.88;8.45;;;;;;;;;;5020853;28;20103;-73
2022/06/18 08:34:19;;;;;;;19.67;7.60;;;;;;;;;;4998241;28;20081;-74
2022/06/18 08:36:45;;;;;;;14.52;7.28;;;;;;;;;;5015804;28;20069;-74
2022/06/18 08:39:12;;;;;;;13.75;6.80;;;;;;;;;;5015632;28;20050;-74
2022/06/18 08:41:49;;;;;;;12.43;6.32;;;;;;;;;;5015677;28;20132;-74
2022/06/18 08:44:21;;;;;;;10.10;6.45;;;;;;;;;;5028141;28;20481;-73
2022/06/18 08:46:47;;;;;;;13.93;8.15;;;;;;;;;;5034352;28;20225;-74
2022/06/18 08:49:19;;;;;;;15.60;7.53;;;;;;;;;;5034226;28;20033;-74
2022/06/18 08:51:45;;;;;;;14.10;6.63;;;;;;;;;;5003902;28;20042;-76
2022/06/18 08:54:34;;;;;;;14.90;6.75;;;;;;;;;;4999963;28;20045;-73
2022/06/18 08:57:32;;;;;;;10.95;6.32;;;;;;;;;;4934819;29;20414;-75
2022/06/18 09:00:03;;;;;;;10.68;5.85;;;;;;;;;;4934652;29;20059;-74
2022/06/18 09:02:36;;;;;;;12.18;6.28;;;;;;;;;;4934718;29;20079;-74
2022/06/18 09:05:22;;;;;;;18.00;7.68;;;;;;;;;;4934645;29;20195;-74
2022/06/18 09:07:55;;;;;;;11.27;5.38;;;;;;;;;;4918670;29;20052;-74
2022/06/18 09:10:40;;;;;;;12.23;5.88;;;;;;;;;;4914602;29;20056;-74
2022/06/18 09:13:11;;;;;;;9.73;5.30;;;;;;;;;;4928715;29;20051;-74
2022/06/18 09:15:42;;;;;;;11.65;5.75;;;;;;;;;;4918634;29;20131;-74
2022/06/18 09:18:14;;;;;;;9.25;4.80;;;;;;;;;;4900231;29;20051;-74
2022/06/18 09:20:43;;;;;;;10.15;5.28;;;;;;;;;;4916015;29;20060;-76
2022/06/18 09:23:15;;;;;;;11.57;5.45;;;;;;;;;;4916254;29;20064;-74
2022/06/18 09:25:44;;;;;;;10.93;5.43;;;;;;;;;;4916228;29;20067;-74
2022/06/18 09:28:13;;;;;;;10.13;4.32;;;;;;;;;;4915595;29;20056;-74
2022/06/18 09:30:44;;;;;;;16.98;5.70;;;;;;;;;;4916111;29;20060;-73
2022/06/18 09:33:13;;;;;;;19.48;6.63;;;;;;;;;;4922365;28;20069;-73
2022/06/18 09:35:39;;;;;;;13.55;5.60;;;;;;;;;;4985893;28;20061;-73
2022/06/18 09:38:09;;;;;;;8.27;4.15;;;;;;;;;;5033530;28;20377;-73
2022/06/18 09:40:38;;;;;;;20.13;7.55;;;;;;;;;;5033389;28;20057;-74
2022/06/18 09:43:10;;;;;;;10.68;4.72;;;;;;;;;;5015779;28;20045;-73
2022/06/18 09:45:42;;;;;;;11.15;4.68;;;;;;;;;;5015618;28;20049;-73
2022/06/18 09:48:09;;;;;;;8.90;4.63;;;;;;;;;;5033339;28;20057;-73
2022/06/18 09:50:48;;;;;;;12.13;4.82;;;;;;;;;;5033419;28;20049;-75
2022/06/18 09:53:26;;;;;;;8.38;4.40;;;;;;;;;;5033128;28;20045;-72
2022/06/18 09:55:58;;;;;;;9.77;5.07;;;;;;;;;;5033360;28;20045;-72
2022/06/18 09:58:31;;;;;;;11.68;4.10;;;;;;;;;;5033194;28;20041;-72
2022/06/18 10:00:58;;;;;;;5.25;3.40;;;;;;;;;;5033117;28;20038;-72
2022/06/18 10:09:01;;;;;;;8.52;4.00;;;;;;;;;;5033302;28;20049;-73
2022/06/18 10:11:27;;;;;;;;;;;;;;;;;;5015699;28;20099;-73
2022/06/18 10:14:01;;;;;;;10.10;3.78;;;;;;;;;;5032956;28;19921;-74
2022/06/18 10:16:30;;;;;;;12.13;4.15;;;;;;;;;;5032818;28;20033;-73
2022/06/18 10:19:06;;;;;;;11.52;3.60;;;;;;;;;;5026955;28;20459;-74
2022/06/18 10:21:55;;;;;;;9.30;4.00;;;;;;;;;;5032653;28;20121;-75
2022/06/18 10:24:26;;;;;;;9.90;3.60;;;;;;;;;;4901565;29;20052;-72
2022/06/18 10:27:02;;;;;;;10.63;4.07;;;;;;;;;;4915162;29;20071;-73
2022/06/18 10:29:48;;;;;;;11.02;4.82;;;;;;;;;;4918540;29;20054;-73
2022/06/18 10:32:31;;;;;;;8.50;3.95;;;;;;;;;;4936081;29;20057;-74
2022/06/18 10:35:03;;;;;;;12.25;5.30;;;;;;;;;;4930947;29;20455;-74
2022/06/18 10:37:29;;;;;;;8.30;4.05;;;;;;;;;;4918392;29;20162;-74
2022/06/18 10:40:10;;;;;;;8.20;3.10;;;;;;;;;;4937100;29;20518;-75
2022/06/18 10:42:47;;;;;;;9.07;3.33;;;;;;;;;;4934896;29;20091;-74
2022/06/18 10:45:26;;;;;;;9.85;3.10;;;;;;;;;;4952609;29;20175;-74
2022/06/18 10:47:54;;;;;;;5.82;3.20;;;;;;;;;;4952212;29;20138;-74
2022/06/18 10:50:21;;;;;;;9.63;4.00;;;;;;;;;;4936274;29;20113;-74
2022/06/18 10:52:57;;;;;;;7.95;3.33;;;;;;;;;;4952398;29;20043;-74
2022/06/18 10:55:23;;;;;;;7.63;3.70;;;;;;;;;;4936086;29;20529;-73
2022/06/18 10:57:50;;;;;;;6.28;3.47;;;;;;;;;;4951979;29;20525;-73
2022/06/18 11:00:23;;;;;;;6.40;3.60;;;;;;;;;;4956746;28;20120;-74
2022/06/18 11:02:50;;;;;;;8.65;4.07;;;;;;;;;;5029362;28;20119;-74
2022/06/18 11:05:35;;;;;;;10.80;3.80;;;;;;;;;;5013553;28;20046;-75
2022/06/18 11:08:03;;;;;;;9.75;3.50;;;;;;;;;;5014128;28;20057;-73
2022/06/18 11:10:49;;;;;;;10.18;4.40;;;;;;;;;;5013638;28;20081;-74
2022/06/18 11:13:38;;;;;;;8.50;3.35;;;;;;;;;;4995668;28;20473;-72
2022/06/18 11:16:19;;;;;;;8.77;3.72;;;;;;;;;;5005786;28;20452;-74
2022/06/18 11:18:55;;;;;;;12.07;3.83;;;;;;;;;;5015878;28;20048;-73
2022/06/18 11:21:43;;;;;;;9.13;3.42;;;;;;;;;;5033449;28;20038;-73
2022/06/18 11:24:12;;;;;;;10.82;4.03;;;;;;;;;;5022195;28;20046;-74
2022/06/18 11:26:43;;;;;;;10.25;3.90;;;;;;;;;;5006158;28;20060;-73
2022/06/18 11:29:31;;;;;;;9.02;4.07;;;;;;;;;;5020758;28;20041;-73
2022/06/18 11:31:57;;;;;;;;;;;;;;;;;;5004845;28;20156;-74
2022/06/18 11:34:33;;;;;;;9.68;3.50;;;;;;;;;;5036047;28;20004;-74
2022/06/18 11:36:59;;;;;;;8.50;3.70;;;;;;;;;;5036223;28;20045;-74
2022/06/18 11:39:36;;;;;;;12.15;4.03;;;;;;;;;;5036210;28;20045;-73
2022/06/18 11:42:08;;;;;;;10.20;3.97;;;;;;;;;;4998890;28;20408;-73
2022/06/18 11:44:55;;;;;;;7.13;3.70;;;;;;;;;;4983246;28;20085;-74
2022/06/18 11:47:23;;;;;;;6.57;3.08;;;;;;;;;;5016529;28;20041;-74
2022/06/18 11:49:58;;;;;;;10.90;3.58;;;;;;;;;;5016793;28;20038;-75
2022/06/18 11:52:43;;;;;;;8.57;4.35;;;;;;;;;;5015655;28;20581;-75
2022/06/18 11:55:12;;;;;;;10.05;3.45;;;;;;;;;;4998222;28;20129;-72
2022/06/18 11:57:41;;;;;;;8.25;3.72;;;;;;;;;;5015418;28;20049;-73
2022/06/18 12:00:13;;;;;;;11.88;5.07;;;;;;;;;;5028968;28;20045;-72
2022/06/18 12:02:39;;;;;;;8.90;3.75;;;;;;;;;;5017834;28;20045;-73
2022/06/18 12:05:24;;;;;;;8.88;4.47;;;;;;;;;;5035603;28;20098;-73
2022/06/18 12:07:53;;;;;;;11.18;3.80;;;;;;;;;;5005047;28;20045;-73
2022/06/18 12:10:21;;;;;;;8.15;3.60;;;;;;;;;;5017644;28;20077;-74
2022/06/18 12:13:06;;;;;;;9.35;3.70;;;;;;;;;;5026259;28;20041;-73
2022/06/18 12:15:40;;;;;;;7.68;3.67;;;;;;;;;;5015803;28;20389;-73
2022/06/18 12:18:22;;;;;;;8.70;3.53;;;;;;;;;;5016333;28;20535;-73
2022/06/18 12:20:57;;;;;;;7.00;3.30;;;;;;;;;;5016251;28;20437;-74
2022/06/18 12:23:23;;;;;;;7.03;3.58;;;;;;;;;;5016035;28;20084;-73
2022/06/18 12:25:54;;;;;;;6.80;3.15;;;;;;;;;;5015876;28;20073;-73
2022/06/18 12:28:24;;;;;;;8.70;3.78;;;;;;;;;;5015207;28;20054;-73
2022/06/18 12:30:53;;;;;;;6.35;3.20;;;;;;;;;;5016141;28;20053;-74
2022/06/18 12:33:42;;;;;;;7.05;3.60;;;;;;;;;;5015716;28;20045;-73
2022/06/18 12:36:19;;;;;;;7.03;3.15;;;;;;;;;;5015474;28;20060;-74
2022/06/18 12:38:48;;;;;;;6.55;3.42;;;;;;;;;;4998336;28;20061;-73
2022/06/18 12:41:40;;;;;;;7.20;3.22;;;;;;;;;;5022313;28;20432;-73
2022/06/18 12:44:06;;;;;;;6.32;2.65;;;;;;;;;;5015558;28;20045;-73
2022/06/18 12:46:37;;;;;;;7.75;3.20;;;;;;;;;;5014095;28;20078;-73
2022/06/18 12:49:16;;;;;;;10.77;3.72;;;;;;;;;;4997855;28;20085;-72
2022/06/18 12:51:45;;;;;;;6.25;2.72;;;;;;;;;;4997721;28;20050;-73
2022/06/18 12:54:21;;;;;;;7.80;2.67;;;;;;;;;;4997770;28;20563;-74
2022/06/18 12:56:47;;;;;;;4.95;2.25;;;;;;;;;;5014235;28;20049;-74
2022/06/18 12:59:16;;;;;;;7.05;2.17;;;;;;;;;;4997603;28;20038;-75
2022/06/18 13:01:51;;;;;;;9.27;2.25;;;;;;;;;;5015135;28;20413;-75
2022/06/18 13:04:20;;;;;;;3.85;1.92;;;;;;;;;;5033661;28;20459;-73
2022/06/18 13:06:56;;;;;;;3.25;1.58;;;;;;;;;;5021686;28;20046;-74
2022/06/18 13:09:38;;;;;;;5.95;2.30;;;;;;;;;;5008225;28;20042;-74
2022/06/18 13:12:13;;;;;;;7.28;2.03;;;;;;;;;;5017815;28;20373;-74
2022/06/18 13:14:57;;;;;;;3.03;1.25;;;;;;;;;;5018159;28;20374;-73
2022/06/18 13:17:26;;;;;;;5.50;1.60;;;;;;;;;;5033279;28;20400;-74
2022/06/18 13:19:55;;;;;;;5.70;1.90;;;;;;;;;;5033913;28;20056;-74
2022/06/18 13:22:21;;;;;;;3.72;1.52;;;;;;;;;;5034079;28;20455;-74
2022/06/18 13:28:10;;;;;;;5.15;1.50;;;;;;;;;;5015933;28;20061;-75
2022/06/18 13:30:41;;;;;;;3.00;1.67;;;;;;;;;;4998910;28;20050;-75
2022/06/18 13:33:22;;;;;;;5.40;1.85;;;;;;;;;;4997295;28;20085;-73
2022/06/18 13:35:58;;;;;;;4.03;1.42;;;;;;;;;;5000655;28;20573;-75
2022/06/18 13:38:33;;;;;;;4.75;1.80;;;;;;;;;;5020917;28;20583;-75
2022/06/18 13:41:05;;;;;;;3.80;1.65;;;;;;;;;;5002272;28;20037;-74
2022/06/18 13:43:50;;;;;;;4.45;2.00;;;;;;;;;;5008202;28;20056;-73
2022/06/18 13:46:34;;;;;;;6.80;2.50;;;;;;;;;;5004001;28;20049;-75
2022/06/18 13:49:04;;;;;;;4.47;2.00;;;;;;;;;;5014867;28;20041;-75
2022/06/18 13:51:32;;;;;;;3.58;1.48;;;;;;;;;;5026551;28;20120;-74
2022/06/18 13:54:05;;;;;;;3.08;1.40;;;;;;;;;;4999468;28;20041;-76
2022/06/18 13:56:32;;;;;;;5.72;1.90;;;;;;;;;;4999383;28;20045;-75
2022/06/18 13:58:58;;;;;;;4.50;1.52;;;;;;;;;;5009994;28;20124;-75
2022/06/18 14:01:26;;;;;;;4.15;1.30;;;;;;;;;;5032593;28;20382;-74
2022/06/18 14:03:54;;;;;;;1.65;1.20;;;;;;;;;;5025387;28;20169;-75
2022/06/18 14:06:20;;;;;;;3.25;1.52;;;;;;;;;;5024304;28;20038;-76
2022/06/18 14:08:55;;;;;;;6.22;1.80;;;;;;;;;;5014348;28;20046;-73
2022/06/18 14:11:35;;;;;;;8.48;2.60;;;;;;;;;;5012113;28;20115;-75
2022/06/18 14:14:03;;;;;;;5.40;1.85;;;;;;;;;;5015305;28;20132;-73
2022/06/18 14:16:32;;;;;;;11.57;2.88;;;;;;;;;;5013509;28;20053;-73
2022/06/18 14:19:13;;;;;;;6.25;1.80;;;;;;;;;;5027844;28;20057;-76
2022/06/18 14:21:40;;;;;;;3.97;1.30;;;;;;;;;;5020688;28;20484;-74
2022/06/18 14:24:06;;;;;;;5.03;1.50;;;;;;;;;;5023128;28;20041;-76
2022/06/18 14:26:41;;;;;;;3.60;1.30;;;;;;;;;;5022829;28;20099;-75
2022/06/18 14:29:07;;;;;;;4.95;1.67;;;;;;;;;;5021005;28;20089;-75
2022/06/18 14:31:36;;;;;;;7.93;1.85;;;;;;;;;;5016219;28;20100;-75
2022/06/18 14:34:05;;;;;;;4.65;2.05;;;;;;;;;;5020102;28;20037;-71
2022/06/18 14:36:35;;;;;;;3.60;1.77;;;;;;;;;;5020200;28;20065;-74
2022/06/18 14:39:03;;;;;;;3.83;1.77;;;;;;;;;;5026047;28;20037;-73
2022/06/18 14:41:34;;;;;;;8.32;2.60;;;;;;;;;;4996030;28;20125;-75
2022/06/18 14:44:13;;;;;;;6.32;2.47;;;;;;;;;;5000121;28;20077;-74
2022/06/18 14:46:57;;;;;;;4.55;1.65;;;;;;;;;;5013914;28;20046;-73
2022/06/18 14:49:31;;;;;;;3.92;1.25;;;;;;;;;;5013845;28;20108;-75
2022/06/18 14:51:57;;;;;;;3.17;1.20;;;;;;;;;;5016900;28;20501;-74
2022/06/18 14:54:53;;;;;;;3.17;1.27;;;;;;;;;;5011940;28;20087;-75
2022/06/18 14:57:35;;;;;;;8.43;2.95;;;;;;;;;;4995643;28;20053;-72
2022/06/18 15:00:20;;;;;;;8.05;2.25;;;;;;;;;;5020128;28;20418;-75
2022/06/18 15:02:52;;;;;;;4.20;1.58;;;;;;;;;;5009949;28;20411;-76
2022/06/18 15:05:23;;;;;;;3.88;1.40;;;;;;;;;;5001146;28;20046;-74
2022/06/18 15:07:49;;;;;;;5.28;1.80;;;;;;;;;;5004009;28;20053;-76
2022/06/18 15:10:20;;;;;;;7.93;2.33;;;;;;;;;;5039147;28;20041;-73
2022/06/18 15:12:52;;;;;;;6.70;1.60;;;;;;;;;;5019478;28;20050;-76